createdAt,value
2022-08-30T00:02:27.515Z,15.50
2022-08-30T00:04:55.832Z,15.60
2022-08-30T00:07:25.199Z,15.70
2022-08-30T00:09:54.844Z,15.80
2022-08-30T00:12:23.159Z,15.80
2022-08-30T00:14:51.508Z,15.90
2022-08-30T00:17:20.319Z,15.90
2022-08-30T00:19:48.548Z,16.00
2022-08-30T00:22:16.849Z,16.00
2022-08-30T00:24:45.062Z,16.10
2022-08-30T00:27:14.747Z,16.10
2022-08-30T00:29:43.016Z,16.10
2022-08-30T00:32:11.318Z,16.10
2022-08-30T00:34:39.590Z,16.10
2022-08-30T00:37:07.838Z,16.10
2022-08-30T00:39:36.048Z,16.10
2022-08-30T00:42:04.644Z,16.10
2022-08-30T00:44:34.298Z,16.00
2022-08-30T00:47:02.812Z,15.90
2022-08-30T00:49:31.675Z,15.80
2022-08-30T00:52:00.373Z,15.80
2022-08-30T00:54:29.820Z,15.80
2022-08-30T00:56:58.591Z,15.80
2022-08-30T00:59:27.323Z,15.70
2022-08-30T01:01:57.235Z,15.70
2022-08-30T01:04:27.533Z,15.60
2022-08-30T01:06:56.167Z,15.60
2022-08-30T01:09:24.980Z,15.50
2022-08-30T01:11:53.653Z,15.40
2022-08-30T01:14:25.980Z,15.40
2022-08-30T01:16:58.647Z,15.30
2022-08-30T01:19:35.548Z,15.30
2022-08-30T01:22:11.550Z,15.20
2022-08-30T01:24:41.348Z,15.20
2022-08-30T01:27:10.138Z,15.10
2022-08-30T01:29:38.679Z,15.20
2022-08-30T01:32:07.819Z,15.10
2022-08-30T01:34:36.056Z,15.10
2022-08-30T01:37:04.313Z,15.10
2022-08-30T01:39:33.873Z,15.00
2022-08-30T01:42:04.447Z,15.00
2022-08-30T01:44:32.729Z,15.00
2022-08-30T01:47:00.943Z,15.00
2022-08-30T01:49:29.640Z,15.00
2022-08-30T01:52:00.336Z,15.10
2022-08-30T01:54:33.711Z,15.00
2022-08-30T01:57:09.878Z,15.00
2022-08-30T01:59:39.363Z,15.00
2022-08-30T02:02:08.230Z,15.00
2022-08-30T02:04:37.076Z,15.00
2022-08-30T02:07:05.998Z,15.00
2022-08-30T02:09:34.237Z,15.00
2022-08-30T02:12:02.664Z,14.90
2022-08-30T02:14:32.307Z,14.90
2022-08-30T02:17:01.950Z,14.80
2022-08-30T02:19:30.510Z,14.80
2022-08-30T02:21:58.811Z,14.80
2022-08-30T02:24:27.131Z,14.70
2022-08-30T02:26:55.599Z,14.70
2022-08-30T02:29:26.103Z,14.70
2022-08-30T02:31:55.803Z,14.60
2022-08-30T02:34:24.218Z,14.50
2022-08-30T02:36:52.527Z,14.40
2022-08-30T02:39:20.698Z,14.40
2022-08-30T02:41:49.107Z,14.40
2022-08-30T02:44:17.528Z,14.30
2022-08-30T02:46:45.807Z,14.30
2022-08-30T02:49:33.464Z,14.30
2022-08-30T02:52:03.414Z,14.30
2022-08-30T02:54:33.239Z,14.30
2022-08-30T02:57:05.036Z,14.20
2022-08-30T02:59:36.911Z,14.20
2022-08-30T03:02:05.248Z,14.20
2022-08-30T03:04:34.860Z,14.20
2022-08-30T03:07:03.176Z,14.10
2022-08-30T03:09:31.827Z,14.10
2022-08-30T03:12:00.069Z,14.10
2022-08-30T03:14:28.308Z,14.10
2022-08-30T03:16:56.713Z,14.20
2022-08-30T03:19:25.444Z,14.20
2022-08-30T03:21:55.090Z,14.30
2022-08-30T03:24:23.331Z,14.40
2022-08-30T03:26:51.566Z,14.40
2022-08-30T03:29:19.779Z,14.40
2022-08-30T03:31:53.140Z,14.50
2022-08-30T03:34:22.946Z,14.50
2022-08-30T03:36:51.571Z,14.60
2022-08-30T03:39:22.322Z,14.60
2022-08-30T03:41:51.130Z,14.60
2022-08-30T03:44:20.370Z,14.50
2022-08-30T03:46:50.421Z,14.50
2022-08-30T03:49:19.085Z,14.40
2022-08-30T03:51:48.391Z,14.40
2022-08-30T03:54:16.746Z,14.30
2022-08-30T03:56:46.787Z,14.30
2022-08-30T03:59:15.374Z,14.30
2022-08-30T04:01:45.629Z,14.30
2022-08-30T04:04:18.665Z,14.20
2022-08-30T04:06:49.249Z,14.20
2022-08-30T04:09:17.436Z,14.20
2022-08-30T04:11:46.988Z,14.20
2022-08-30T04:14:15.316Z,14.20
2022-08-30T04:16:43.691Z,14.20
2022-08-30T04:19:11.951Z,14.20
2022-08-30T04:21:43.201Z,14.20
2022-08-30T04:24:11.877Z,14.20
2022-08-30T04:26:40.510Z,14.30
2022-08-30T04:29:11.741Z,14.30
2022-08-30T04:31:40.197Z,14.30
2022-08-30T04:34:10.007Z,14.30
2022-08-30T04:36:38.276Z,14.30
2022-08-30T04:39:07.314Z,14.30
2022-08-30T04:41:36.923Z,14.30
2022-08-30T04:44:05.212Z,14.40
2022-08-30T04:46:35.304Z,14.30
2022-08-30T04:49:03.549Z,14.30
2022-08-30T04:51:32.247Z,14.40
2022-08-30T04:54:00.500Z,14.40
2022-08-30T04:56:28.801Z,14.40
2022-08-30T04:58:57.280Z,14.40
2022-08-30T05:01:29.708Z,14.40
2022-08-30T05:04:00.975Z,14.40
2022-08-30T05:06:32.076Z,14.40
2022-08-30T05:09:01.755Z,14.40
2022-08-30T05:11:30.380Z,14.50
2022-08-30T05:13:58.731Z,14.50
2022-08-30T05:16:27.265Z,14.50
2022-08-30T05:18:55.614Z,14.60
2022-08-30T05:21:27.067Z,14.60
2022-08-30T05:23:57.058Z,14.60
2022-08-30T05:26:27.663Z,14.70
2022-08-30T05:28:56.602Z,14.70
2022-08-30T05:31:26.909Z,14.80
2022-08-30T05:33:56.119Z,14.90
2022-08-30T05:36:28.152Z,15.00
2022-08-30T05:38:57.152Z,15.10
2022-08-30T05:41:26.715Z,15.20
2022-08-30T05:43:56.396Z,15.30
2022-08-30T05:46:25.288Z,15.40
2022-08-30T05:48:53.620Z,15.50
2022-08-30T05:51:23.832Z,15.60
2022-08-30T05:53:54.942Z,15.70
2022-08-30T05:56:27.249Z,15.80
2022-08-30T05:58:55.627Z,15.90
2022-08-30T06:01:26.575Z,16.10
2022-08-30T06:03:56.935Z,16.20
2022-08-30T06:06:26.827Z,16.40
2022-08-30T06:08:56.816Z,16.40
2022-08-30T06:11:26.654Z,16.50
2022-08-30T06:13:56.033Z,16.70
2022-08-30T06:16:27.783Z,16.90
2022-08-30T06:18:58.356Z,17.00
2022-08-30T06:21:28.718Z,17.20
2022-08-30T06:23:59.164Z,17.20
2022-08-30T06:26:27.972Z,17.30
2022-08-30T06:28:57.239Z,17.40
2022-08-30T06:31:27.084Z,17.60
2022-08-30T06:33:56.474Z,17.90
2022-08-30T06:36:26.300Z,18.10
2022-08-30T06:38:56.639Z,18.30
2022-08-30T06:41:28.515Z,18.30
2022-08-30T06:43:57.709Z,18.40
2022-08-30T06:46:29.213Z,18.40
2022-08-30T06:48:58.176Z,18.70
2022-08-30T06:51:28.322Z,18.90
2022-08-30T06:53:58.992Z,19.10
2022-08-30T06:56:31.127Z,19.30
2022-08-30T06:58:59.980Z,19.40
2022-08-30T07:01:30.592Z,19.70
2022-08-30T07:04:01.119Z,19.80
2022-08-30T07:06:30.951Z,19.70
2022-08-30T07:08:59.160Z,19.90
2022-08-30T07:11:34.997Z,20.00
2022-08-30T07:14:06.520Z,20.10
2022-08-30T07:16:35.816Z,20.10
2022-08-30T07:19:05.874Z,20.10
2022-08-30T07:21:36.434Z,20.40
2022-08-30T07:24:08.850Z,20.80
2022-08-30T07:26:41.261Z,21.10
2022-08-30T07:29:10.819Z,21.10
2022-08-30T07:31:39.510Z,20.90
2022-08-30T07:34:08.779Z,20.90
2022-08-30T07:36:40.041Z,20.90
2022-08-30T07:39:09.837Z,20.90
2022-08-30T07:41:39.746Z,20.90
2022-08-30T07:44:09.385Z,20.80
2022-08-30T07:46:39.732Z,21.10
2022-08-30T07:49:11.357Z,20.80
2022-08-30T07:51:40.933Z,21.00
2022-08-30T07:54:09.235Z,21.20
2022-08-30T07:56:39.833Z,21.40
2022-08-30T07:59:08.138Z,21.40
2022-08-30T08:01:36.477Z,21.30
2022-08-30T08:04:04.922Z,21.30
2022-08-30T08:06:34.866Z,21.40
2022-08-30T08:09:03.607Z,21.50
2022-08-30T08:11:33.942Z,21.90
2022-08-30T08:14:05.241Z,22.20
2022-08-30T08:16:35.228Z,22.30
2022-08-30T08:19:04.972Z,22.40
2022-08-30T08:21:33.253Z,22.30
2022-08-30T08:24:01.516Z,22.50
2022-08-30T08:26:29.752Z,22.40
2022-08-30T08:28:58.227Z,22.70
2022-08-30T08:31:33.282Z,22.70
2022-08-30T08:34:03.384Z,22.90
2022-08-30T08:36:32.069Z,23.10
2022-08-30T08:39:00.310Z,23.30
2022-08-30T08:41:41.265Z,23.20
2022-08-30T08:44:17.989Z,23.10
2022-08-30T08:46:57.277Z,23.10
2022-08-30T08:49:25.667Z,23.20
2022-08-30T08:52:14.248Z,23.50
2022-08-30T08:54:50.004Z,23.50
2022-08-30T08:57:21.405Z,23.40
2022-08-30T08:59:54.418Z,23.50
2022-08-30T09:02:28.685Z,23.70
2022-08-30T09:05:00.533Z,23.60
2022-08-30T09:07:31.589Z,23.50
2022-08-30T09:10:00.987Z,23.40
2022-08-30T09:12:29.706Z,23.30
2022-08-30T09:15:05.243Z,23.20
2022-08-30T09:17:51.936Z,23.30
2022-08-30T09:20:29.703Z,23.40
2022-08-30T09:22:58.930Z,23.50
2022-08-30T09:25:31.244Z,23.80
2022-08-30T09:28:12.419Z,23.80
2022-08-30T09:30:41.356Z,23.70
2022-08-30T09:33:22.010Z,23.70
2022-08-30T09:35:54.182Z,23.80
2022-08-30T09:38:25.191Z,24.00
2022-08-30T09:40:55.368Z,24.10
2022-08-30T09:43:25.946Z,24.20
2022-08-30T09:46:16.390Z,24.20
2022-08-30T09:48:47.415Z,24.40
2022-08-30T09:51:44.991Z,24.70
2022-08-30T09:54:22.714Z,25.10
2022-08-30T09:57:02.031Z,25.00
2022-08-30T09:59:42.327Z,24.80
2022-08-30T10:02:28.470Z,24.90
2022-08-30T10:05:11.939Z,25.10
2022-08-30T10:07:49.965Z,25.50
2022-08-30T10:10:30.398Z,25.70
2022-08-30T10:13:08.874Z,26.10
2022-08-30T10:15:41.872Z,26.30
2022-08-30T10:18:17.664Z,26.40
2022-08-30T10:20:55.444Z,26.20
2022-08-30T10:23:28.452Z,26.10
2022-08-30T10:26:12.800Z,26.20
2022-08-30T10:28:46.795Z,26.20
2022-08-30T10:31:25.117Z,26.40
2022-08-30T10:33:58.937Z,26.20
2022-08-30T10:36:37.192Z,26.10
2022-08-30T10:39:06.251Z,25.80
2022-08-30T10:41:38.741Z,26.10
2022-08-30T10:44:12.871Z,26.10
2022-08-30T10:46:51.977Z,26.00
2022-08-30T10:49:24.903Z,26.00
2022-08-30T10:51:59.907Z,26.30
2022-08-30T10:54:35.836Z,26.50
2022-08-30T10:57:04.505Z,26.80
2022-08-30T10:59:34.423Z,26.90
2022-08-30T11:02:31.529Z,27.10
2022-08-30T11:05:26.956Z,27.10
2022-08-30T11:08:03.101Z,27.10
2022-08-30T11:10:49.646Z,27.30
2022-08-30T11:13:22.325Z,27.20
2022-08-30T11:16:00.918Z,27.50
2022-08-30T11:18:31.754Z,27.70
2022-08-30T11:21:20.104Z,27.70
2022-08-30T11:24:14.398Z,27.80
2022-08-30T11:26:57.255Z,27.60
2022-08-30T11:29:39.099Z,27.50
2022-08-30T11:32:59.462Z,27.70
2022-08-30T11:35:45.954Z,27.60
2022-08-30T11:38:41.192Z,27.70
2022-08-30T11:41:14.099Z,27.90
2022-08-30T11:43:57.229Z,27.80
2022-08-30T11:46:41.489Z,28.00
2022-08-30T11:49:39.585Z,28.20
2022-08-30T11:52:27.505Z,27.90
2022-08-30T11:55:18.002Z,27.80
2022-08-30T11:57:53.898Z,27.80
2022-08-30T12:00:35.063Z,27.90
2022-08-30T12:03:06.948Z,27.90
2022-08-30T12:05:51.629Z,28.00
2022-08-30T12:08:42.567Z,28.20
2022-08-30T12:12:02.385Z,28.20
2022-08-30T12:14:47.504Z,28.40
2022-08-30T12:18:06.635Z,28.20
2022-08-30T12:20:47.627Z,28.30
2022-08-30T12:23:20.655Z,28.60
2022-08-30T12:25:48.957Z,28.50
2022-08-30T12:28:24.050Z,28.20
2022-08-30T12:30:54.421Z,28.00
2022-08-30T12:33:29.351Z,28.20
2022-08-30T12:35:59.453Z,28.00
2022-08-30T12:38:28.344Z,28.30
2022-08-30T12:41:00.265Z,28.30
2022-08-30T12:43:40.234Z,28.50
2022-08-30T12:46:16.088Z,28.70
2022-08-30T12:48:45.702Z,28.60
2022-08-30T12:51:29.081Z,28.70
2022-08-30T12:54:06.628Z,28.70
2022-08-30T12:56:51.947Z,28.40
2022-08-30T12:59:39.858Z,28.60
2022-08-30T13:03:21.910Z,28.60
2022-08-30T13:05:34.310Z,28.70
2022-08-30T13:08:19.583Z,29.00
2022-08-30T13:10:59.087Z,29.10
2022-08-30T13:13:31.576Z,29.20
2022-08-30T13:16:12.798Z,29.00
2022-08-30T13:18:43.616Z,28.60
2022-08-30T13:21:20.188Z,28.60
2022-08-30T13:23:48.874Z,28.60
2022-08-30T13:26:20.496Z,28.80
2022-08-30T13:28:53.621Z,28.80
2022-08-30T13:31:22.454Z,29.10
2022-08-30T13:33:53.647Z,29.10
2022-08-30T13:36:24.704Z,29.00
2022-08-30T13:38:53.236Z,28.80
2022-08-30T13:41:21.563Z,28.70
2022-08-30T13:46:41.298Z,29.10
2022-08-30T13:52:20.266Z,28.90
2022-08-30T13:54:50.244Z,29.00
2022-08-30T14:00:17.300Z,29.10
2022-08-30T14:02:54.113Z,29.00
2022-08-30T14:11:11.252Z,29.10
2022-08-30T14:16:32.349Z,28.70
2022-08-30T14:19:01.836Z,28.60
2022-08-30T14:21:31.916Z,28.20
2022-08-30T14:24:00.609Z,28.30
2022-08-30T14:26:32.892Z,28.40
2022-08-30T14:29:03.418Z,28.60
2022-08-30T14:31:32.770Z,28.90
2022-08-30T14:34:03.358Z,29.00
2022-08-30T14:36:36.067Z,29.00
2022-08-30T14:39:08.620Z,29.00
2022-08-30T14:41:43.642Z,29.20
2022-08-30T14:44:12.985Z,29.10
2022-08-30T14:46:41.653Z,29.00
2022-08-30T14:49:11.532Z,29.10
2022-08-30T14:51:41.772Z,29.40
2022-08-30T14:54:11.043Z,29.40
2022-08-30T14:56:40.416Z,29.40
2022-08-30T14:59:08.860Z,29.70
2022-08-30T15:01:39.459Z,29.50
2022-08-30T15:04:09.737Z,29.30
2022-08-30T15:06:40.675Z,28.90
2022-08-30T15:09:12.109Z,28.90
2022-08-30T15:11:41.896Z,28.80
2022-08-30T15:14:15.872Z,28.80
2022-08-30T15:16:44.864Z,28.60
2022-08-30T15:19:13.404Z,28.30
2022-08-30T15:21:46.143Z,28.10
2022-08-30T15:24:16.807Z,27.80
2022-08-30T15:26:45.708Z,27.70
2022-08-30T15:29:16.111Z,27.80
2022-08-30T15:31:45.527Z,27.90
2022-08-30T15:34:20.520Z,27.70
2022-08-30T15:36:50.414Z,27.90
2022-08-30T15:39:19.636Z,27.80
2022-08-30T15:41:57.157Z,27.70
2022-08-30T15:44:28.172Z,27.70
2022-08-30T15:46:57.459Z,27.60
2022-08-30T15:49:26.195Z,27.40
2022-08-30T15:51:55.803Z,27.70
2022-08-30T15:54:24.956Z,27.70
2022-08-30T15:56:59.442Z,27.50
2022-08-30T15:59:28.616Z,27.60
2022-08-30T16:01:57.482Z,27.70
2022-08-30T16:04:26.148Z,27.60
2022-08-30T16:06:56.955Z,27.70
2022-08-30T16:09:26.514Z,27.60
2022-08-30T16:11:58.373Z,27.60
2022-08-30T16:14:27.585Z,27.70
2022-08-30T16:16:56.060Z,27.50
2022-08-30T16:19:25.100Z,27.30
2022-08-30T16:21:53.356Z,27.20
2022-08-30T16:24:25.884Z,27.10
2022-08-30T16:26:54.268Z,26.90
2022-08-30T16:29:22.511Z,27.00
2022-08-30T16:31:51.009Z,27.10
2022-08-30T16:34:20.689Z,27.20
2022-08-30T16:36:49.068Z,27.20
2022-08-30T16:39:18.518Z,27.20
2022-08-30T16:41:48.733Z,27.30
2022-08-30T16:44:18.372Z,27.20
2022-08-30T16:46:53.031Z,27.20
2022-08-30T16:49:23.111Z,27.20
2022-08-30T16:51:53.628Z,27.20
2022-08-30T16:54:23.326Z,27.20
2022-08-30T16:56:53.048Z,27.10
2022-08-30T16:59:21.332Z,26.90
2022-08-30T17:01:50.035Z,26.80
2022-08-30T17:04:19.607Z,26.60
2022-08-30T17:06:49.735Z,26.70
2022-08-30T17:09:19.495Z,26.50
2022-08-30T17:11:48.924Z,26.50
2022-08-30T17:14:27.581Z,26.60
2022-08-30T17:16:56.666Z,26.60
2022-08-30T17:19:27.021Z,26.40
2022-08-30T17:21:58.029Z,26.30
2022-08-30T17:24:26.990Z,26.40
2022-08-30T17:26:55.532Z,26.40
2022-08-30T17:29:25.142Z,26.20
2022-08-30T17:31:54.452Z,26.00
2022-08-30T17:34:23.595Z,25.90
2022-08-30T17:36:57.168Z,25.90
2022-08-30T17:39:25.643Z,25.90
2022-08-30T17:41:54.270Z,25.80
2022-08-30T17:44:26.975Z,25.70
2022-08-30T17:46:57.086Z,25.50
2022-08-30T17:49:26.721Z,25.40
2022-08-30T17:51:56.919Z,25.20
2022-08-30T17:54:26.632Z,25.20
2022-08-30T17:56:55.459Z,25.10
2022-08-30T17:59:25.736Z,25.00
2022-08-30T18:01:55.444Z,25.00
2022-08-30T18:04:24.956Z,24.90
2022-08-30T18:06:53.722Z,24.70
2022-08-30T18:09:22.747Z,24.80
2022-08-30T18:11:51.725Z,24.70
2022-08-30T18:14:26.023Z,24.50
2022-08-30T18:16:54.879Z,24.40
2022-08-30T18:19:24.569Z,24.20
2022-08-30T18:21:53.390Z,24.20
2022-08-30T18:24:22.264Z,24.20
2022-08-30T18:26:50.522Z,24.20
2022-08-30T18:29:26.174Z,24.10
2022-08-30T18:32:05.594Z,24.00
2022-08-30T18:34:37.375Z,23.90
2022-08-30T18:37:06.262Z,23.80
2022-08-30T18:39:40.206Z,23.70
2022-08-30T18:42:10.911Z,23.50
2022-08-30T18:44:40.111Z,23.50
2022-08-30T18:47:13.325Z,23.50
2022-08-30T18:49:42.652Z,23.50
2022-08-30T18:52:11.973Z,23.50
2022-08-30T18:54:42.672Z,23.60
2022-08-30T18:57:11.966Z,23.60
2022-08-30T18:59:41.869Z,23.70
2022-08-30T19:02:15.447Z,23.60
2022-08-30T19:04:45.530Z,23.60
2022-08-30T19:07:15.115Z,23.50
2022-08-30T19:09:43.553Z,23.60
2022-08-30T19:12:15.279Z,23.50
2022-08-30T19:14:44.477Z,23.40
2022-08-30T19:17:14.257Z,23.40
2022-08-30T19:19:48.412Z,23.40
2022-08-30T19:22:19.107Z,23.30
2022-08-30T19:24:47.984Z,23.30
2022-08-30T19:27:21.669Z,23.20
2022-08-30T19:30:07.455Z,23.10
2022-08-30T19:32:40.170Z,23.00
2022-08-30T19:35:10.479Z,22.80
2022-08-30T19:37:39.573Z,22.70
2022-08-30T19:40:11.682Z,22.70
2022-08-30T19:42:46.085Z,22.70
2022-08-30T19:45:17.729Z,22.70
2022-08-30T19:47:48.747Z,22.70
2022-08-30T19:50:18.204Z,22.70
2022-08-30T19:52:53.425Z,22.70
2022-08-30T19:55:23.787Z,22.70
2022-08-30T19:57:56.577Z,22.70
2022-08-30T20:00:25.098Z,22.80
2022-08-30T20:02:54.862Z,22.80
2022-08-30T20:05:23.928Z,22.70
2022-08-30T20:07:52.153Z,22.60
2022-08-30T20:10:20.948Z,22.60
2022-08-30T20:12:54.388Z,22.40
2022-08-30T20:15:23.123Z,22.50
2022-08-30T20:18:14.378Z,22.50
2022-08-30T20:23:34.740Z,22.40
2022-08-30T20:26:04.731Z,22.30
2022-08-30T20:28:33.275Z,22.10
2022-08-30T20:31:04.559Z,22.00
2022-08-30T20:33:33.095Z,22.00
2022-08-30T20:36:03.463Z,21.90
2022-08-30T20:38:32.005Z,21.80
2022-08-30T20:41:01.119Z,21.70
2022-08-30T20:43:30.926Z,21.70
2022-08-30T20:45:59.294Z,21.70
2022-08-30T20:48:28.752Z,21.80
2022-08-30T20:50:57.110Z,21.70
2022-08-30T20:53:26.696Z,21.70
2022-08-30T20:55:54.883Z,21.70
2022-08-30T20:58:23.122Z,21.80
2022-08-30T21:00:53.159Z,21.70
2022-08-30T21:03:26.092Z,21.70
2022-08-30T21:05:56.563Z,21.60
2022-08-30T21:08:26.131Z,21.70
2022-08-30T21:10:54.540Z,21.70
2022-08-30T21:13:23.291Z,21.60
2022-08-30T21:15:53.004Z,21.50
2022-08-30T21:18:23.622Z,21.60
2022-08-30T21:20:51.900Z,21.70
2022-08-30T21:23:20.071Z,21.60
2022-08-30T21:25:49.879Z,21.60
2022-08-30T21:28:18.655Z,21.50
2022-08-30T21:30:47.065Z,21.50
2022-08-30T21:33:15.404Z,21.40
2022-08-30T21:36:01.267Z,21.40
2022-08-30T21:38:29.439Z,21.20
2022-08-30T21:40:59.072Z,21.20
2022-08-30T21:43:27.464Z,21.20
2022-08-30T21:45:55.734Z,21.10
2022-08-30T21:48:23.952Z,21.10
2022-08-30T21:50:52.405Z,21.00
2022-08-30T21:53:20.730Z,20.90
2022-08-30T21:55:49.124Z,20.90
2022-08-30T21:58:21.257Z,20.90
2022-08-30T22:00:49.473Z,20.90
2022-08-30T22:03:17.982Z,20.90
2022-08-30T22:05:52.592Z,20.90
2022-08-30T22:08:20.850Z,20.80
2022-08-30T22:10:49.028Z,20.80
2022-08-30T22:13:17.628Z,20.80
2022-08-30T22:15:47.649Z,20.70
2022-08-30T22:18:16.692Z,20.70
2022-08-30T22:20:46.380Z,20.60
2022-08-30T22:23:15.840Z,20.60
2022-08-30T22:25:47.483Z,20.60
2022-08-30T22:28:15.976Z,20.50
2022-08-30T22:30:44.504Z,20.40
2022-08-30T22:33:14.387Z,20.50
2022-08-30T22:35:43.451Z,20.50
2022-08-30T22:38:11.811Z,20.50
2022-08-30T22:40:45.515Z,20.50
2022-08-30T22:43:13.994Z,20.50
2022-08-30T22:45:42.654Z,20.50
2022-08-30T22:48:11.593Z,20.40
2022-08-30T22:50:41.683Z,20.40
2022-08-30T22:53:09.984Z,20.40
2022-08-30T22:55:40.750Z,20.40
2022-08-30T22:58:09.028Z,20.30
2022-08-30T23:00:39.983Z,20.30
2022-08-30T23:03:11.156Z,20.20
2022-08-30T23:05:40.922Z,20.10
2022-08-30T23:08:09.392Z,20.10
2022-08-30T23:10:37.668Z,20.10
2022-08-30T23:13:06.023Z,20.10
2022-08-30T23:15:34.351Z,19.90
2022-08-30T23:18:02.673Z,19.90
2022-08-30T23:20:30.944Z,19.90
2022-08-30T23:23:00.646Z,19.90
2022-08-30T23:25:51.801Z,19.90
2022-08-30T23:28:39.324Z,20.00
2022-08-30T23:31:30.396Z,20.00
2022-08-30T23:34:16.686Z,19.90
2022-08-30T23:37:02.619Z,19.80
2022-08-30T23:39:49.742Z,19.70
2022-08-30T23:42:35.304Z,19.70
2022-08-30T23:45:20.869Z,19.60
2022-08-30T23:48:06.468Z,19.50
2022-08-30T23:50:52.126Z,19.50
2022-08-30T23:53:37.821Z,19.50
2022-08-30T23:56:31.012Z,19.50
2022-08-30T23:59:16.555Z,19.40
